createdAt,value
2023-01-22T00:01:49.516Z,98.78
2023-01-22T00:06:53.763Z,98.94
2023-01-22T00:11:57.914Z,98.55
2023-01-22T00:17:00.835Z,98.37
2023-01-22T00:22:05.100Z,98.18
2023-01-22T00:27:08.173Z,98.36
2023-01-22T00:32:11.235Z,98.57
2023-01-22T00:37:17.954Z,98.58
2023-01-22T00:42:20.883Z,97.12
2023-01-22T00:47:23.791Z,97.89
2023-01-22T00:52:28.337Z,98.33
2023-01-22T00:57:31.260Z,99.29
2023-01-22T01:02:55.529Z,100.00
2023-01-22T01:07:59.840Z,100.00
2023-01-22T01:13:02.800Z,99.85
2023-01-22T01:18:06.017Z,99.46
2023-01-22T01:23:10.326Z,98.79
2023-01-22T01:28:13.229Z,99.35
2023-01-22T01:33:16.139Z,98.37
2023-01-22T01:38:20.396Z,98.41
2023-01-22T01:43:23.875Z,99.35
2023-01-22T01:48:32.446Z,99.83
2023-01-22T01:53:37.663Z,99.86
2023-01-22T01:58:43.335Z,99.74
2023-01-22T02:03:47.860Z,99.37
2023-01-22T02:08:53.758Z,99.33
2023-01-22T02:14:02.793Z,99.55
2023-01-22T02:19:05.731Z,99.81
2023-01-22T02:24:11.937Z,99.27
2023-01-22T02:29:15.957Z,99.07
2023-01-22T02:34:19.417Z,99.26
2023-01-22T02:39:24.707Z,99.43
2023-01-22T02:44:27.731Z,98.69
2023-01-22T02:49:30.644Z,97.76
2023-01-22T02:54:35.072Z,98.90
2023-01-22T02:59:38.049Z,99.54
2023-01-22T03:04:41.216Z,99.61
2023-01-22T03:09:47.097Z,99.11
2023-01-22T03:15:07.352Z,97.75
2023-01-22T03:20:30.007Z,97.45
2023-01-22T03:25:34.325Z,97.49
2023-01-22T03:30:37.590Z,96.21
2023-01-22T03:35:40.761Z,96.51
2023-01-22T03:40:51.062Z,96.44
2023-01-22T03:45:55.128Z,97.29
2023-01-22T03:51:05.545Z,97.68
2023-01-22T03:56:12.526Z,97.29
2023-01-22T04:01:18.186Z,96.80
2023-01-22T04:06:22.292Z,97.19
2023-01-22T04:11:26.692Z,96.29
2023-01-22T04:16:30.096Z,96.85
2023-01-22T04:22:00.118Z,96.48
2023-01-22T04:27:05.099Z,96.07
2023-01-22T04:32:08.095Z,97.09
2023-01-22T04:37:25.887Z,96.86
2023-01-22T04:42:30.318Z,96.39
2023-01-22T04:47:33.360Z,96.15
2023-01-22T04:52:36.306Z,95.03
2023-01-22T04:57:41.308Z,95.71
2023-01-22T05:02:44.236Z,96.09
2023-01-22T05:07:47.860Z,97.15
2023-01-22T05:12:52.635Z,96.83
2023-01-22T05:17:55.785Z,97.64
2023-01-22T05:22:58.719Z,98.20
2023-01-22T05:28:04.339Z,98.24
2023-01-22T05:33:20.110Z,99.04
2023-01-22T05:38:23.223Z,99.69
2023-01-22T05:43:27.654Z,99.19
2023-01-22T05:48:36.347Z,98.63
2023-01-22T05:53:47.947Z,98.82
2023-01-22T05:58:53.056Z,98.47
2023-01-22T06:03:56.093Z,98.57
2023-01-22T06:09:00.881Z,98.03
2023-01-22T06:14:10.541Z,98.20
2023-01-22T06:19:13.605Z,98.72
2023-01-22T06:24:20.992Z,98.74
2023-01-22T06:29:25.321Z,99.01
2023-01-22T06:34:28.917Z,98.54
2023-01-22T06:39:35.612Z,97.80
2023-01-22T06:44:47.835Z,98.16
2023-01-22T06:49:51.117Z,98.56
2023-01-22T06:54:54.093Z,98.81
2023-01-22T06:59:59.111Z,98.98
2023-01-22T07:05:02.035Z,99.72
2023-01-22T07:10:05.521Z,100.00
2023-01-22T07:15:10.348Z,100.00
2023-01-22T07:20:13.592Z,100.00
2023-01-22T07:25:16.854Z,100.00
2023-01-22T07:30:21.448Z,100.00
2023-01-22T07:35:24.329Z,100.00
2023-01-22T07:40:28.016Z,100.00
2023-01-22T07:45:32.410Z,100.00
2023-01-22T07:50:36.883Z,99.66
2023-01-22T07:55:41.557Z,100.00
2023-01-22T08:00:45.824Z,100.00
2023-01-22T08:05:48.738Z,100.00
2023-01-22T08:10:51.605Z,100.00
2023-01-22T08:15:56.125Z,100.00
2023-01-22T08:21:01.053Z,100.00
2023-01-22T08:26:05.044Z,100.00
2023-01-22T08:31:16.459Z,100.00
2023-01-22T08:36:27.963Z,100.00
2023-01-22T08:41:30.886Z,99.96
2023-01-22T08:46:38.527Z,98.57
2023-01-22T08:51:41.464Z,97.53
2023-01-22T08:56:44.403Z,97.78
2023-01-22T09:01:48.924Z,97.10
2023-01-22T09:06:51.857Z,96.63
2023-01-22T09:11:54.720Z,96.57
2023-01-22T09:16:58.948Z,96.02
2023-01-22T09:22:06.305Z,96.60
2023-01-22T09:27:12.061Z,96.26
2023-01-22T09:32:16.303Z,95.70
2023-01-22T09:37:19.279Z,94.61
2023-01-22T09:42:27.207Z,96.77
2023-01-22T09:47:35.319Z,96.16
2023-01-22T09:52:40.263Z,97.10
2023-01-22T09:57:47.659Z,97.55
2023-01-22T10:02:56.302Z,97.44
2023-01-22T10:08:05.252Z,97.84
2023-01-22T10:13:15.921Z,97.35
2023-01-22T10:18:35.494Z,95.56
2023-01-22T10:23:38.647Z,96.18
2023-01-22T10:28:45.343Z,95.77
2023-01-22T10:33:56.703Z,96.11
2023-01-22T10:39:09.833Z,96.19
2023-01-22T10:44:20.738Z,95.09
2023-01-22T10:49:26.653Z,95.87
2023-01-22T10:54:33.297Z,96.26
2023-01-22T10:59:36.581Z,96.41
2023-01-22T11:04:40.815Z,97.47
2023-01-22T11:09:47.688Z,97.24
2023-01-22T11:15:03.481Z,96.12
2023-01-22T11:20:21.266Z,96.12
2023-01-22T11:25:25.108Z,93.55
2023-01-22T11:30:51.320Z,94.45
2023-01-22T11:36:01.359Z,92.78
2023-01-22T11:41:18.837Z,92.35
2023-01-22T11:46:37.064Z,93.12
2023-01-22T11:51:56.095Z,93.65
2023-01-22T11:57:12.629Z,91.08
2023-01-22T12:02:31.096Z,90.12
2023-01-22T12:07:52.116Z,88.25
2023-01-22T12:13:04.431Z,90.11
2023-01-22T12:18:42.566Z,89.11
2023-01-22T12:23:52.666Z,89.20
2023-01-22T12:29:01.260Z,90.94
2023-01-22T12:34:13.105Z,90.34
2023-01-22T12:39:27.113Z,91.35
2023-01-22T12:44:42.867Z,90.23
2023-01-22T12:49:48.450Z,89.11
2023-01-22T12:54:56.400Z,89.94
2023-01-22T13:00:10.254Z,89.79
2023-01-22T13:05:20.852Z,89.27
2023-01-22T13:10:30.170Z,88.57
2023-01-22T13:15:37.277Z,89.55
2023-01-22T13:21:02.720Z,90.59
2023-01-22T13:26:07.173Z,90.80
2023-01-22T13:31:17.805Z,92.19
2023-01-22T13:36:20.785Z,93.19
2023-01-22T13:41:31.336Z,92.04
2023-01-22T13:46:38.479Z,92.31
2023-01-22T13:51:42.983Z,93.32
2023-01-22T13:56:47.290Z,93.20
2023-01-22T14:01:50.964Z,94.50
2023-01-22T14:06:53.923Z,95.72
2023-01-22T14:11:58.832Z,95.67
2023-01-22T14:17:01.773Z,95.32
2023-01-22T14:22:04.724Z,95.67
2023-01-22T14:27:09.131Z,94.51
2023-01-22T14:32:12.010Z,95.32
2023-01-22T14:37:16.547Z,95.74
2023-01-22T14:42:20.817Z,97.11
2023-01-22T14:47:23.745Z,97.58
2023-01-22T14:52:26.659Z,96.95
2023-01-22T14:57:30.905Z,97.67
2023-01-22T15:02:35.501Z,97.79
2023-01-22T15:07:39.093Z,99.65
2023-01-22T15:12:48.065Z,98.79
2023-01-22T15:17:51.632Z,99.14
2023-01-22T15:22:54.606Z,99.38
2023-01-22T15:27:58.858Z,99.90
2023-01-22T15:33:01.731Z,100.00
2023-01-22T15:38:05.373Z,100.00
2023-01-22T15:43:10.398Z,100.00
2023-01-22T15:48:15.805Z,99.43
2023-01-22T15:53:19.574Z,98.84
2023-01-22T15:58:23.874Z,98.95
2023-01-22T16:03:26.784Z,99.46
2023-01-22T16:08:29.760Z,99.44
2023-01-22T16:13:34.459Z,100.00
2023-01-22T16:18:42.542Z,100.00
2023-01-22T16:23:47.048Z,99.70
2023-01-22T16:28:52.923Z,99.77
2023-01-22T16:33:58.471Z,100.00
2023-01-22T16:39:01.728Z,99.84
2023-01-22T16:44:10.275Z,100.00
2023-01-22T16:49:15.550Z,99.68
2023-01-22T16:54:21.757Z,99.27
2023-01-22T16:59:27.052Z,98.62
2023-01-22T17:04:30.753Z,99.31
2023-01-22T17:09:36.796Z,99.65
2023-01-22T17:14:41.187Z,99.19
2023-01-22T17:19:44.048Z,99.07
2023-01-22T17:24:47.718Z,99.16
2023-01-22T17:29:52.029Z,98.86
2023-01-22T17:34:54.921Z,99.96
2023-01-22T17:39:57.761Z,100.00
2023-01-22T17:45:02.071Z,99.46
2023-01-22T17:50:05.397Z,99.10
2023-01-22T17:55:08.927Z,97.97
2023-01-22T18:00:17.449Z,98.13
2023-01-22T18:05:21.195Z,98.42
2023-01-22T18:10:24.214Z,99.51
2023-01-22T18:15:28.511Z,99.33
2023-01-22T18:20:32.162Z,99.49
2023-01-22T18:25:35.057Z,99.67
2023-01-22T18:30:39.418Z,99.36
2023-01-22T18:35:43.337Z,99.10
2023-01-22T18:40:46.178Z,98.86
2023-01-22T18:45:50.496Z,98.27
2023-01-22T18:50:53.912Z,98.20
2023-01-22T18:56:00.365Z,98.89
2023-01-22T19:01:11.687Z,98.92
2023-01-22T19:06:16.840Z,98.88
2023-01-22T19:11:19.839Z,98.56
2023-01-22T19:16:25.274Z,98.32
2023-01-22T19:21:28.719Z,97.68
2023-01-22T19:26:33.524Z,96.85
2023-01-22T19:31:39.905Z,96.04
2023-01-22T19:36:42.890Z,96.11
2023-01-22T19:41:45.800Z,97.09
2023-01-22T19:46:50.093Z,97.38
2023-01-22T19:51:53.203Z,97.26
2023-01-22T19:56:56.384Z,96.54
2023-01-22T20:02:00.696Z,97.23
2023-01-22T20:07:05.886Z,96.10
2023-01-22T20:12:11.260Z,95.76
2023-01-22T20:17:16.736Z,95.40
2023-01-22T20:22:19.618Z,95.17
2023-01-22T20:27:22.477Z,94.95
2023-01-22T20:32:28.628Z,94.29
2023-01-22T20:37:32.093Z,94.45
2023-01-22T20:42:34.984Z,94.32
2023-01-22T20:47:39.297Z,95.27
2023-01-22T20:52:42.187Z,96.27
2023-01-22T20:57:45.056Z,96.47
2023-01-22T21:02:51.762Z,95.42
2023-01-22T21:07:54.667Z,95.37
2023-01-22T21:12:57.539Z,95.12
2023-01-22T21:18:01.807Z,95.48
2023-01-22T21:23:04.788Z,94.48
2023-01-22T21:28:07.724Z,94.80
2023-01-22T21:33:11.938Z,94.30
2023-01-22T21:38:14.799Z,94.15
2023-01-22T21:43:35.203Z,94.60
2023-01-22T21:48:39.449Z,94.51
2023-01-22T21:53:42.344Z,95.58
2023-01-22T21:58:45.598Z,94.94
2023-01-22T22:03:50.114Z,95.85
2023-01-22T22:08:53.040Z,95.89
2023-01-22T22:13:56.684Z,95.96
2023-01-22T22:19:01.220Z,94.62
2023-01-22T22:24:04.774Z,95.91
2023-01-22T22:29:09.257Z,95.91
2023-01-22T22:34:13.512Z,95.61
2023-01-22T22:39:16.425Z,95.15
2023-01-22T22:44:19.347Z,96.19
2023-01-22T22:49:23.612Z,95.94
2023-01-22T22:54:27.392Z,96.09
2023-01-22T22:59:30.269Z,95.73
2023-01-22T23:04:35.257Z,95.08
2023-01-22T23:09:38.444Z,95.47
2023-01-22T23:14:41.315Z,94.60
2023-01-22T23:19:45.544Z,94.39
2023-01-22T23:24:48.451Z,95.03
2023-01-22T23:29:52.120Z,96.12
2023-01-22T23:34:56.409Z,95.22
2023-01-22T23:39:59.327Z,95.42
2023-01-22T23:45:02.235Z,96.59
2023-01-22T23:50:08.662Z,96.98
2023-01-22T23:55:11.911Z,96.59
